Time;durP1;ratioP1;P1;durP2;ratioP2;P2;SDS_P1;SDS_P2;PMS_P1;PMS_P2;Temp;Humidity;BMP_temperature;BMP_pressure;BME280_temperature;BME280_humidity;BME280_pressure;Samples;Min_cycle;Max_cycle;Signal;HPM_P1;HPM_P2
2022/03/04 00:01:13;;;;;;;;;;;8.90;92.50;;;;;;5077287;28;19923;-76
2022/03/04 00:03:38;;;;;;;;;;;8.90;92.50;;;;;;5075225;28;19948;-76
2022/03/04 00:06:04;;;;;;;;;;;8.90;92.50;;;;;;5081074;28;19999;-76
2022/03/04 00:08:30;;;;;;;;;;;8.90;92.60;;;;;;5080846;28;19962;-76
2022/03/04 00:10:55;;;;;;;;;;;8.90;92.70;;;;;;5080657;28;19909;-76
2022/03/04 00:13:21;;;;;;;;;;;8.90;92.90;;;;;;5080731;28;19909;-76
2022/03/04 00:15:47;;;;;;;;;;;8.90;92.80;;;;;;5080885;28;19920;-76
2022/03/04 00:18:12;;;;;;;;;;;8.80;92.60;;;;;;5080287;28;19913;-76
2022/03/04 00:20:38;;;;;;;;;;;8.80;92.50;;;;;;5062647;28;19916;-76
2022/03/04 00:23:04;;;;;;;;;;;8.80;92.60;;;;;;5080425;28;20266;-76
2022/03/04 00:25:29;;;;;;;;;;;8.80;92.60;;;;;;5080828;28;19909;-76
2022/03/04 00:27:55;;;;;;;;;;;8.80;92.50;;;;;;5080390;28;19916;-77
2022/03/04 00:30:21;;;;;;;;;;;8.90;92.90;;;;;;5080614;28;19916;-76
2022/03/04 00:32:47;;;;;;;;;;;8.80;92.80;;;;;;5062216;28;20402;-76
2022/03/04 00:35:13;;;;;;;;;;;8.80;92.90;;;;;;5062666;28;19931;-76
2022/03/04 00:37:39;;;;;;;;;;;8.80;92.90;;;;;;5062450;28;19958;-76
2022/03/04 00:40:05;;;;;;;;;;;8.80;92.90;;;;;;5079094;28;19913;-76
2022/03/04 00:42:31;;;;;;;;;;;8.80;93.00;;;;;;5080057;28;19909;-76
2022/03/04 00:44:56;;;;;;;;;;;8.80;92.90;;;;;;5072329;28;19927;-76
2022/03/04 00:47:22;;;;;;;;;;;8.80;92.90;;;;;;5074203;28;20011;-76
2022/03/04 00:49:48;;;;;;;;;;;8.80;92.80;;;;;;5080322;28;19908;-76
2022/03/04 00:52:13;;;;;;;;;;;8.80;92.70;;;;;;5079841;28;19975;-76
2022/03/04 00:54:39;;;;;;;;;;;8.80;92.60;;;;;;5079988;28;19905;-76
2022/03/04 00:57:05;;;;;;;;;;;8.80;92.40;;;;;;5079873;28;19908;-76
2022/03/04 00:59:30;;;;;;;;;;;8.70;92.40;;;;;;5080337;28;19908;-76
2022/03/04 01:01:56;;;;;;;;;;;8.70;92.40;;;;;;5061764;28;19913;-76
2022/03/04 01:04:22;;;;;;;;;;;8.80;92.50;;;;;;5056815;28;19940;-76
2022/03/04 01:06:48;;;;;;;;;;;8.80;92.40;;;;;;5079643;28;19986;-76
2022/03/04 01:09:13;;;;;;;;;;;8.80;92.40;;;;;;5079650;28;19912;-76
2022/03/04 01:11:39;;;;;;;;;;;8.70;92.40;;;;;;5079752;28;19929;-77
2022/03/04 01:14:05;;;;;;;;;;;8.80;92.50;;;;;;5079051;28;19916;-76
2022/03/04 01:16:31;;;;;;;;;;;8.70;92.40;;;;;;5079287;28;19916;-77
2022/03/04 01:18:57;;;;;;;;;;;8.80;92.60;;;;;;5061867;28;19966;-76
2022/03/04 01:21:22;;;;;;;;;;;8.70;92.40;;;;;;5061378;28;19920;-76
2022/03/04 01:23:48;;;;;;;;;;;8.80;92.50;;;;;;5061312;28;19909;-76
2022/03/04 01:26:13;;;;;;;;;;;8.70;92.40;;;;;;5061243;28;19908;-77
2022/03/04 01:28:39;;;;;;;;;;;8.70;92.30;;;;;;5061423;28;19915;-77
2022/03/04 01:31:05;;;;;;;;;;;8.70;92.30;;;;;;5079233;28;19908;-77
2022/03/04 01:33:30;;;;;;;;;;;8.70;92.20;;;;;;5078869;28;19940;-77
2022/03/04 01:35:56;;;;;;;;;;;8.70;92.30;;;;;;5079016;28;20272;-76
2022/03/04 01:38:22;;;;;;;;;;;8.70;92.20;;;;;;5079231;28;20355;-76
2022/03/04 01:40:47;;;;;;;;;;;8.70;92.20;;;;;;5059816;28;19916;-76
2022/03/04 01:43:13;;;;;;;;;;;8.70;92.10;;;;;;5079100;28;19912;-77
2022/03/04 01:45:39;;;;;;;;;;;8.60;92.10;;;;;;5065302;28;19944;-76
2022/03/04 01:48:05;;;;;;;;;;;8.60;92.00;;;;;;5078797;28;19931;-76
2022/03/04 01:50:30;;;;;;;;;;;8.60;91.90;;;;;;5078912;28;20287;-76
2022/03/04 01:52:56;;;;;;;;;;;8.60;91.90;;;;;;5078846;28;19909;-76
2022/03/04 01:55:22;;;;;;;;;;;8.60;91.90;;;;;;5060701;28;19963;-76
2022/03/04 01:57:48;;;;;;;;;;;8.60;91.90;;;;;;5047936;28;20421;-76
2022/03/04 02:00:14;;;;;;;;;;;8.60;91.80;;;;;;5078907;28;19991;-76
2022/03/04 02:02:40;;;;;;;;;;;8.60;91.80;;;;;;5060747;28;19908;-76
2022/03/04 02:05:06;;;;;;;;;;;8.60;91.70;;;;;;5078504;28;19961;-76
2022/03/04 02:07:32;;;;;;;;;;;8.50;91.70;;;;;;5078894;28;19944;-76
2022/03/04 02:09:57;;;;;;;;;;;8.50;91.70;;;;;;5078390;28;19912;-77
2022/03/04 02:12:23;;;;;;;;;;;8.50;91.70;;;;;;5078490;28;19912;-76
2022/03/04 02:14:48;;;;;;;;;;;8.50;91.60;;;;;;5060617;28;19909;-77
2022/03/04 02:17:14;;;;;;;;;;;8.50;91.60;;;;;;5060292;28;19971;-77
2022/03/04 02:19:40;;;;;;;;;;;8.50;91.70;;;;;;5078660;28;19961;-77
2022/03/04 02:22:07;;;;;;;;;;;8.50;91.60;;;;;;5078385;28;19908;-77
2022/03/04 02:24:33;;;;;;;;;;;8.50;91.60;;;;;;5060206;28;19913;-77
2022/03/04 02:27:00;;;;;;;;;;;8.50;91.50;;;;;;5077483;28;19930;-77
2022/03/04 02:29:26;;;;;;;;;;;8.40;91.50;;;;;;5078238;28;20276;-77
2022/03/04 02:31:52;;;;;;;;;;;8.50;91.50;;;;;;5077881;28;19909;-77
2022/03/04 02:34:18;;;;;;;;;;;8.40;91.50;;;;;;5060064;28;19909;-77
2022/03/04 02:36:45;;;;;;;;;;;8.50;91.50;;;;;;5078091;28;20535;-77
2022/03/04 02:39:11;;;;;;;;;;;8.40;91.50;;;;;;5058757;28;20430;-77
2022/03/04 02:41:37;;;;;;;;;;;8.40;91.40;;;;;;5060702;28;19915;-77
2022/03/04 02:44:07;;;;;;;;;;;8.40;91.50;;;;;;5077503;28;19936;-77
2022/03/04 02:46:33;;;;;;;;;;;8.40;91.40;;;;;;5065461;28;19920;-77
2022/03/04 02:48:59;;;;;;;;;;;8.40;91.50;;;;;;5077837;28;19916;-77
2022/03/04 02:51:24;;;;;;;;;;;8.40;91.50;;;;;;5078241;28;19909;-77
2022/03/04 02:53:51;;;;;;;;;;;8.40;91.60;;;;;;5077805;28;19909;-77
2022/03/04 02:56:16;;;;;;;;;;;8.40;91.60;;;;;;5078006;28;19912;-77
2022/03/04 02:58:42;;;;;;;;;;;8.40;91.50;;;;;;5077715;28;19908;-77
2022/03/04 03:01:08;;;;;;;;;;;8.30;91.50;;;;;;5077908;28;20375;-77
2022/03/04 03:03:34;;;;;;;;;;;8.40;91.50;;;;;;5073323;28;19935;-77
2022/03/04 03:06:00;;;;;;;;;;;8.40;91.60;;;;;;5077876;28;19986;-76
2022/03/04 03:08:25;;;;;;;;;;;8.30;91.50;;;;;;5059644;28;19908;-77
2022/03/04 03:10:51;;;;;;;;;;;8.30;91.60;;;;;;5059605;28;19916;-77
2022/03/04 03:13:17;;;;;;;;;;;8.30;91.50;;;;;;5077822;28;19916;-77
2022/03/04 03:15:42;;;;;;;;;;;8.30;91.60;;;;;;5078031;28;19916;-77
2022/03/04 03:18:08;;;;;;;;;;;8.30;91.50;;;;;;5077172;28;20000;-77
2022/03/04 03:20:34;;;;;;;;;;;8.30;91.80;;;;;;5077731;28;19909;-77
2022/03/04 03:22:59;;;;;;;;;;;8.30;91.50;;;;;;5077418;28;19908;-77
2022/03/04 03:25:25;;;;;;;;;;;8.30;91.50;;;;;;5077626;28;19908;-77
2022/03/04 03:27:51;;;;;;;;;;;8.30;91.60;;;;;;5077420;28;19909;-77
2022/03/04 03:30:17;;;;;;;;;;;8.30;91.50;;;;;;5077690;28;19935;-77
2022/03/04 03:32:42;;;;;;;;;;;8.20;91.50;;;;;;5076957;28;19930;-77
2022/03/04 03:35:08;;;;;;;;;;;8.30;91.60;;;;;;5077787;28;19920;-77
2022/03/04 03:37:35;;;;;;;;;;;8.30;91.50;;;;;;5061226;28;19909;-77
2022/03/04 03:40:01;;;;;;;;;;;8.20;91.40;;;;;;5081060;28;19999;-78
2022/03/04 03:42:26;;;;;;;;;;;8.20;91.50;;;;;;5081146;28;19958;-77
2022/03/04 03:44:52;;;;;;;;;;;8.20;91.50;;;;;;5074027;28;20435;-78
2022/03/04 03:47:18;;;;;;;;;;;8.20;91.60;;;;;;5074794;28;20463;-77
2022/03/04 03:49:43;;;;;;;;;;;8.10;91.50;;;;;;5081434;28;19908;-78
2022/03/04 03:52:09;;;;;;;;;;;8.10;91.50;;;;;;5063263;28;19931;-78
2022/03/04 03:54:34;;;;;;;;;;;8.10;91.60;;;;;;5081162;28;19920;-77
2022/03/04 03:57:01;;;;;;;;;;;8.10;91.90;;;;;;5081126;28;19912;-77
2022/03/04 03:59:26;;;;;;;;;;;8.10;91.60;;;;;;5063342;28;19931;-77
2022/03/04 04:01:52;;;;;;;;;;;8.10;91.70;;;;;;5080586;28;20440;-77
2022/03/04 04:04:18;;;;;;;;;;;8.10;91.80;;;;;;5076810;28;20364;-77
2022/03/04 04:06:43;;;;;;;;;;;8.00;91.70;;;;;;5080709;28;19909;-77
2022/03/04 04:09:09;;;;;;;;;;;8.00;91.70;;;;;;5080960;28;19916;-77
2022/03/04 04:11:36;;;;;;;;;;;8.00;91.80;;;;;;5080588;28;19908;-77
2022/03/04 04:14:03;;;;;;;;;;;8.00;91.80;;;;;;5080816;28;19908;-77
2022/03/04 04:16:28;;;;;;;;;;;8.00;91.80;;;;;;5080191;28;19912;-77
2022/03/04 04:18:56;;;;;;;;;;;8.00;91.80;;;;;;5080742;28;20294;-76
2022/03/04 04:21:22;;;;;;;;;;;8.00;91.70;;;;;;5080669;28;20264;-77
2022/03/04 04:23:48;;;;;;;;;;;8.00;91.70;;;;;;5080485;28;19915;-77
2022/03/04 04:26:13;;;;;;;;;;;8.00;91.70;;;;;;5080557;28;19932;-77
2022/03/04 04:28:39;;;;;;;;;;;7.90;91.70;;;;;;5080555;28;19959;-77
2022/03/04 04:31:05;;;;;;;;;;;7.90;91.70;;;;;;5062407;28;19908;-77
2022/03/04 04:33:31;;;;;;;;;;;7.90;91.70;;;;;;5080152;28;19956;-77
2022/03/04 04:35:57;;;;;;;;;;;7.90;91.60;;;;;;5080172;28;19943;-77
2022/03/04 04:38:23;;;;;;;;;;;7.90;91.50;;;;;;5062385;28;19920;-77
2022/03/04 04:40:49;;;;;;;;;;;7.90;91.50;;;;;;5079533;28;20315;-77
2022/03/04 04:43:15;;;;;;;;;;;7.90;91.70;;;;;;5080494;28;19908;-77
2022/03/04 04:45:40;;;;;;;;;;;7.90;91.80;;;;;;5048494;28;19927;-77
2022/03/04 04:48:08;;;;;;;;;;;7.90;91.80;;;;;;5078763;28;21301;-76
2022/03/04 04:50:34;;;;;;;;;;;7.90;91.80;;;;;;5079396;28;19934;-76
2022/03/04 04:52:59;;;;;;;;;;;7.80;91.80;;;;;;5080242;28;20359;-76
2022/03/04 04:55:25;;;;;;;;;;;7.80;91.70;;;;;;5079969;28;19920;-76
2022/03/04 04:57:50;;;;;;;;;;;7.80;91.70;;;;;;5080163;28;19908;-76
2022/03/04 05:00:17;;;;;;;;;;;7.80;91.70;;;;;;5079797;28;19916;-76
2022/03/04 05:02:44;;;;;;;;;;;7.80;91.80;;;;;;5079616;28;19909;-76
2022/03/04 05:05:10;;;;;;;;;;;7.80;91.80;;;;;;5075278;28;19999;-76
2022/03/04 05:07:36;;;;;;;;;;;7.80;91.70;;;;;;5061768;28;20377;-76
2022/03/04 05:10:03;;;;;;;;;;;7.80;91.90;;;;;;5079469;28;19995;-77
2022/03/04 05:12:29;;;;;;;;;;;7.80;91.90;;;;;;5079677;28;19916;-77
2022/03/04 05:14:55;;;;;;;;;;;7.80;91.80;;;;;;5079445;28;20379;-76
2022/03/04 05:17:21;;;;;;;;;;;7.80;91.80;;;;;;5061617;28;19930;-76
2022/03/04 05:19:46;;;;;;;;;;;7.80;91.90;;;;;;5079384;28;19999;-77
2022/03/04 05:22:12;;;;;;;;;;;7.70;91.80;;;;;;5061779;28;20325;-77
2022/03/04 05:24:38;;;;;;;;;;;7.70;91.80;;;;;;5079308;28;20364;-76
2022/03/04 05:27:03;;;;;;;;;;;7.80;92.00;;;;;;5079486;28;19979;-79
2022/03/04 05:29:29;;;;;;;;;;;7.70;91.90;;;;;;5079371;28;19996;-74
2022/03/04 05:31:55;;;;;;;;;;;7.70;91.90;;;;;;5079201;28;19909;-76
2022/03/04 05:34:20;;;;;;;;;;;7.70;92.00;;;;;;5060982;28;19908;-76
2022/03/04 05:36:46;;;;;;;;;;;7.70;92.00;;;;;;5061132;28;19918;-77
2022/03/04 05:39:12;;;;;;;;;;;7.70;92.00;;;;;;5061079;28;19954;-77
2022/03/04 05:41:37;;;;;;;;;;;7.70;91.90;;;;;;5079402;28;19909;-78
2022/03/04 05:44:06;;;;;;;;;;;7.70;92.10;;;;;;5078582;28;19925;-78
2022/03/04 05:46:32;;;;;;;;;;;7.70;92.30;;;;;;5066511;28;19913;-77
2022/03/04 05:48:58;;;;;;;;;;;7.70;92.20;;;;;;5079162;28;20279;-78
2022/03/04 05:51:23;;;;;;;;;;;7.70;92.40;;;;;;5078885;28;19919;-79
2022/03/04 05:53:51;;;;;;;;;;;7.70;92.50;;;;;;5060850;28;20051;-82
2022/03/04 05:56:17;;;;;;;;;;;7.60;92.40;;;;;;5061015;28;19939;-81
2022/03/04 05:58:43;;;;;;;;;;;7.60;92.40;;;;;;5078650;28;19951;-82
2022/03/04 06:01:09;;;;;;;;;;;7.60;92.20;;;;;;5078628;28;19958;-81
2022/03/04 06:03:35;;;;;;;;;;;7.60;92.40;;;;;;5056340;28;19963;-80
2022/03/04 06:06:00;;;;;;;;;;;7.60;92.50;;;;;;5060628;28;19914;-80
2022/03/04 06:08:26;;;;;;;;;;;7.60;92.50;;;;;;5078447;28;20520;-72
2022/03/04 06:10:51;;;;;;;;;;;7.60;92.60;;;;;;5078443;28;19915;-79
2022/03/04 06:13:17;;;;;;;;;;;7.50;92.50;;;;;;5078401;28;19909;-77
2022/03/04 06:15:43;;;;;;;;;;;7.50;92.60;;;;;;5060760;28;19924;-77
2022/03/04 06:18:09;;;;;;;;;;;7.50;92.90;;;;;;5077783;28;20391;-79
2022/03/04 06:20:34;;;;;;;;;;;7.50;92.60;;;;;;5078471;28;19908;-79
2022/03/04 06:23:00;;;;;;;;;;;7.50;92.60;;;;;;5077414;28;19909;-80
2022/03/04 06:25:26;;;;;;;;;;;7.50;92.60;;;;;;5077034;28;19978;-80
2022/03/04 06:27:52;;;;;;;;;;;7.50;92.60;;;;;;5060151;28;19909;-80
2022/03/04 06:30:17;;;;;;;;;;;7.50;92.60;;;;;;5077355;28;19916;-81
2022/03/04 06:32:43;;;;;;;;;;;7.50;92.50;;;;;;5059521;28;19912;-80
2022/03/04 06:35:09;;;;;;;;;;;7.40;92.50;;;;;;5078198;28;19909;-80
2022/03/04 06:37:34;;;;;;;;;;;7.40;92.40;;;;;;5078067;28;19909;-81
2022/03/04 06:40:00;;;;;;;;;;;7.40;92.40;;;;;;5078021;28;19909;-81
2022/03/04 06:42:26;;;;;;;;;;;7.40;92.30;;;;;;5060142;28;19981;-78
2022/03/04 06:44:52;;;;;;;;;;;7.40;92.30;;;;;;5070998;28;19925;-79
2022/03/04 06:47:17;;;;;;;;;;;7.40;92.30;;;;;;5071244;28;19958;-80
2022/03/04 06:49:43;;;;;;;;;;;7.40;92.30;;;;;;5078234;28;19916;-79
2022/03/04 06:52:08;;;;;;;;;;;7.40;92.20;;;;;;5077789;28;19915;-79
2022/03/04 06:54:36;;;;;;;;;;;7.40;92.20;;;;;;5077945;28;20392;-78
2022/03/04 06:57:02;;;;;;;;;;;7.40;92.40;;;;;;5077725;28;19913;-78
2022/03/04 06:59:28;;;;;;;;;;;7.40;92.50;;;;;;5078377;28;19915;-79
2022/03/04 07:01:53;;;;;;;;;;;7.40;92.50;;;;;;5076910;28;20299;-79
2022/03/04 07:04:19;;;;;;;;;;;7.40;92.50;;;;;;5072170;28;19908;-79
2022/03/04 07:06:45;;;;;;;;;;;7.40;92.60;;;;;;5076666;28;19940;-80
2022/03/04 07:09:10;;;;;;;;;;;7.40;92.60;;;;;;5077526;28;19915;-80
2022/03/04 07:11:36;;;;;;;;;;;7.40;92.60;;;;;;5077040;28;19909;-80
2022/03/04 07:14:01;;;;;;;;;;;7.50;92.60;;;;;;5077858;28;19934;-79
2022/03/04 07:16:27;;;;;;;;;;;7.50;92.60;;;;;;5077232;28;19913;-79
2022/03/04 07:18:53;;;;;;;;;;;7.50;92.60;;;;;;5078330;28;20414;-80
2022/03/04 07:21:18;;;;;;;;;;;7.60;92.80;;;;;;5077544;28;19909;-80
2022/03/04 07:23:44;;;;;;;;;;;7.60;92.90;;;;;;5077821;28;19943;-80
2022/03/04 07:26:12;;;;;;;;;;;7.70;92.80;;;;;;5059331;28;19908;-80
2022/03/04 07:28:37;;;;;;;;;;;7.70;92.80;;;;;;5059555;28;19908;-80
2022/03/04 07:31:03;;;;;;;;;;;7.80;92.70;;;;;;5077205;28;19919;-79
2022/03/04 07:33:29;;;;;;;;;;;7.80;92.60;;;;;;5077490;28;19909;-80
2022/03/04 07:35:54;;;;;;;;;;;7.80;92.50;;;;;;5077388;28;19920;-80
2022/03/04 07:38:20;;;;;;;;;;;7.90;92.70;;;;;;5077704;28;19913;-80
2022/03/04 07:40:46;;;;;;;;;;;7.90;92.40;;;;;;5076973;28;19908;-80
2022/03/04 07:43:11;;;;;;;;;;;8.00;92.40;;;;;;5077629;28;19909;-80
2022/03/04 07:45:37;;;;;;;;;;;8.00;92.30;;;;;;5063864;28;19921;-79
2022/03/04 07:48:03;;;;;;;;;;;8.10;92.30;;;;;;5059281;28;19917;-79
2022/03/04 07:50:29;;;;;;;;;;;8.10;92.30;;;;;;5059351;28;19909;-79
2022/03/04 07:52:54;;;;;;;;;;;8.20;92.30;;;;;;5064302;28;19935;-79
2022/03/04 07:55:20;;;;;;;;;;;8.20;92.30;;;;;;5077245;28;21325;-79
2022/03/04 07:57:46;;;;;;;;;;;8.30;92.30;;;;;;5077646;28;19908;-79
2022/03/04 08:00:13;;;;;;;;;;;8.40;92.20;;;;;;5077317;28;19916;-79
2022/03/04 08:02:39;;;;;;;;;;;8.50;92.20;;;;;;5063839;28;19931;-79
2022/03/04 08:05:08;;;;;;;;;;;8.60;92.20;;;;;;5072137;28;19909;-79
2022/03/04 08:07:34;;;;;;;;;;;8.70;92.20;;;;;;5064447;28;19912;-79
2022/03/04 08:10:00;;;;;;;;;;;8.80;92.00;;;;;;5077098;28;19968;-79
2022/03/04 08:12:25;;;;;;;;;;;8.90;92.00;;;;;;5077257;28;20426;-79
2022/03/04 08:14:51;;;;;;;;;;;9.10;92.00;;;;;;5077135;28;20359;-79
2022/03/04 08:17:17;;;;;;;;;;;9.20;91.90;;;;;;5076975;28;19912;-79
2022/03/04 08:19:43;;;;;;;;;;;9.30;92.00;;;;;;5077132;28;20427;-79
2022/03/04 08:22:09;;;;;;;;;;;9.50;91.60;;;;;;5077212;28;19959;-79
2022/03/04 08:24:34;;;;;;;;;;;9.60;91.60;;;;;;5060302;28;20366;-79
2022/03/04 08:27:00;;;;;;;;;;;9.70;91.60;;;;;;5081299;28;19915;-79
2022/03/04 08:29:26;;;;;;;;;;;9.70;91.70;;;;;;5080498;28;20387;-79
2022/03/04 08:31:51;;;;;;;;;;;9.80;91.70;;;;;;5080479;28;19909;-79
2022/03/04 08:34:17;;;;;;;;;;;10.00;91.60;;;;;;5080295;28;19908;-79
2022/03/04 08:36:43;;;;;;;;;;;10.10;91.20;;;;;;5080285;28;20337;-79
2022/03/04 08:39:08;;;;;;;;;;;10.20;91.30;;;;;;5079488;28;20007;-80
2022/03/04 08:41:34;;;;;;;;;;;10.30;91.40;;;;;;5080746;28;19908;-79
2022/03/04 08:44:00;;;;;;;;;;;10.40;91.40;;;;;;5079949;28;19915;-80
2022/03/04 08:46:26;;;;;;;;;;;10.50;91.40;;;;;;5066856;28;19942;-79
2022/03/04 08:48:51;;;;;;;;;;;10.60;91.50;;;;;;5080266;28;19909;-80
2022/03/04 08:51:17;;;;;;;;;;;10.70;91.50;;;;;;5067146;28;19909;-79
2022/03/04 08:53:43;;;;;;;;;;;10.80;91.50;;;;;;5080052;28;19999;-79
2022/03/04 08:56:08;;;;;;;;;;;10.90;91.30;;;;;;5048745;28;19912;-79
2022/03/04 08:58:34;;;;;;;;;;;11.10;90.80;;;;;;5080025;28;19915;-80
2022/03/04 09:01:00;;;;;;;;;;;11.20;91.00;;;;;;5080139;28;20275;-79
2022/03/04 09:03:26;;;;;;;;;;;11.30;91.00;;;;;;5057210;28;19916;-79
2022/03/04 09:05:52;;;;;;;;;;;11.50;91.10;;;;;;5079985;28;20003;-79
2022/03/04 09:08:17;;;;;;;;;;;11.60;91.00;;;;;;5079652;28;19909;-79
2022/03/04 09:10:44;;;;;;;;;;;11.90;90.30;;;;;;5079635;28;19920;-79
2022/03/04 09:13:09;;;;;;;;;;;12.00;90.10;;;;;;5079834;28;19908;-79
2022/03/04 09:15:35;;;;;;;;;;;12.20;88.50;;;;;;5079715;28;20781;-80
2022/03/04 09:18:01;;;;;;;;;;;12.30;88.20;;;;;;5079385;28;19931;-79
2022/03/04 09:20:26;;;;;;;;;;;12.30;88.10;;;;;;5061684;28;19932;-79
2022/03/04 09:22:53;;;;;;;;;;;12.40;89.00;;;;;;5079307;28;19939;-79
2022/03/04 09:25:18;;;;;;;;;;;12.60;87.50;;;;;;5079745;28;19908;-79
2022/03/04 09:27:44;;;;;;;;;;;12.90;89.00;;;;;;5079454;28;19916;-79
2022/03/04 09:30:14;;;;;;;;;;;13.50;87.80;;;;;;5079488;28;19995;-79
2022/03/04 09:32:40;;;;;;;;;;;14.20;85.00;;;;;;5078894;28;20329;-79
2022/03/04 09:35:06;;;;;;;;;;;14.70;85.50;;;;;;5078686;28;19912;-79
2022/03/04 09:37:32;;;;;;;;;;;15.10;85.20;;;;;;5079238;28;19909;-79
2022/03/04 09:39:57;;;;;;;;;;;15.40;83.20;;;;;;5078552;28;19916;-79
2022/03/04 09:42:23;;;;;;;;;;;15.70;83.00;;;;;;5079084;28;20051;-79
2022/03/04 09:44:49;;;;;;;;;;;16.10;83.30;;;;;;5051064;28;19921;-79
2022/03/04 09:47:18;;;;;;;;;;;16.40;81.40;;;;;;5052177;28;19909;-79
2022/03/04 09:49:44;;;;;;;;;;;16.50;80.30;;;;;;5059209;28;19909;-79
2022/03/04 09:52:10;;;;;;;;;;;16.60;77.10;;;;;;5058717;28;19910;-79
2022/03/04 09:54:35;;;;;;;;;;;16.70;77.70;;;;;;5058966;28;20419;-79
2022/03/04 09:57:01;;;;;;;;;;;16.80;79.90;;;;;;5058642;28;20387;-79
2022/03/04 09:59:27;;;;;;;;;;;17.10;80.50;;;;;;5059198;28;19909;-79
2022/03/04 10:01:52;;;;;;;;;;;17.40;77.10;;;;;;5058365;28;19908;-79
2022/03/04 10:04:18;;;;;;;;;;;17.70;77.20;;;;;;5054785;28;19908;-79
2022/03/04 10:06:48;;;;;;;;;;;18.00;77.40;;;;;;5058564;28;19909;-80
2022/03/04 10:09:32;;;;;;;;;;;18.20;75.90;;;;;;5058850;28;19909;-80
2022/03/04 10:12:02;;;;;;;;;;;18.30;73.40;;;;;;5058437;28;20296;-80
2022/03/04 10:14:28;;;;;;;;;;;18.60;71.30;;;;;;5058394;28;19909;-80
2022/03/04 10:16:56;;;;;;;;;;;18.70;71.80;;;;;;5057992;28;19919;-80
2022/03/04 10:19:23;;;;;;;;;;;19.00;70.80;;;;;;5057465;28;19913;-80
2022/03/04 10:21:57;;;;;;;;;;;19.10;69.70;;;;;;5058176;28;19952;-80
2022/03/04 10:24:26;;;;;;;;;;;19.40;71.30;;;;;;5056747;28;19909;-80
2022/03/04 10:26:59;;;;;;;;;;;19.90;71.40;;;;;;5058783;28;20004;-80
2022/03/04 10:29:25;;;;;;;;;;;20.70;73.50;;;;;;5057043;28;20387;-80
2022/03/04 10:32:24;;;;;;;;;;;21.40;70.70;;;;;;5057939;28;19916;-79
2022/03/04 10:34:54;;;;;;;;;;;21.40;66.50;;;;;;5043530;28;19909;-80
2022/03/04 10:37:23;;;;;;;;;;;21.20;64.20;;;;;;5056900;28;19913;-80
2022/03/04 10:40:01;;;;;;;;;;;21.20;65.90;;;;;;5056662;28;19909;-80
2022/03/04 10:42:45;;;;;;;;;;;21.50;66.60;;;;;;5056834;28;19969;-80
2022/03/04 10:45:12;;;;;;;;;;;22.20;66.20;;;;;;5060889;28;19970;-80
2022/03/04 10:47:39;;;;;;;;;;;22.40;63.90;;;;;;5073497;28;19909;-80
2022/03/04 10:50:05;;;;;;;;;;;22.40;62.60;;;;;;5078032;28;19908;-80
2022/03/04 10:52:30;;;;;;;;;;;22.50;60.10;;;;;;5077739;28;19909;-80
2022/03/04 10:54:56;;;;;;;;;;;22.80;63.10;;;;;;5078091;28;19916;-80
2022/03/04 10:57:22;;;;;;;;;;;23.20;65.30;;;;;;5077797;28;19909;-80
2022/03/04 10:59:57;;;;;;;;;;;23.60;63.50;;;;;;5060328;28;19915;-80
2022/03/04 11:02:45;;;;;;;;;;;24.00;62.70;;;;;;5077387;28;19931;-80
2022/03/04 11:05:11;;;;;;;;;;;24.50;61.60;;;;;;5073140;28;19972;-80
2022/03/04 11:07:37;;;;;;;;;;;24.80;60.60;;;;;;5078154;28;20354;-80
2022/03/04 11:10:03;;;;;;;;;;;24.60;58.00;;;;;;5077522;28;19909;-80
2022/03/04 11:12:29;;;;;;;;;;;24.40;57.80;;;;;;5059742;28;19915;-80
2022/03/04 11:14:56;;;;;;;;;;;24.20;58.00;;;;;;5059583;28;19919;-80
2022/03/04 11:17:21;;;;;;;;;;;23.90;58.40;;;;;;5077742;28;19915;-80
2022/03/04 11:19:48;;;;;;;;;;;23.70;58.70;;;;;;5077612;28;19908;-80
2022/03/04 11:22:14;;;;;;;;;;;23.80;58.10;;;;;;5059929;28;20049;-80
2022/03/04 11:24:40;;;;;;;;;;;23.80;56.50;;;;;;5077378;28;19934;-80
2022/03/04 11:27:08;;;;;;;;;;;23.90;57.20;;;;;;5059927;28;19912;-80
2022/03/04 11:29:35;;;;;;;;;;;24.10;57.40;;;;;;5077388;28;19923;-80
2022/03/04 11:32:03;;;;;;;;;;;24.30;57.80;;;;;;5077562;28;19948;-80
2022/03/04 11:34:54;;;;;;;;;;;24.40;55.70;;;;;;5077353;28;19915;-80
2022/03/04 11:37:21;;;;;;;;;;;24.20;55.40;;;;;;5072709;28;19912;-80
2022/03/04 11:40:05;;;;;;;;;;;24.00;53.80;;;;;;5077556;28;20291;-80
2022/03/04 11:42:37;;;;;;;;;;;23.90;55.30;;;;;;5077238;28;19957;-80
2022/03/04 11:45:03;;;;;;;;;;;24.00;55.40;;;;;;5068628;28;20092;-80
2022/03/04 11:47:30;;;;;;;;;;;24.30;54.70;;;;;;5072551;28;19980;-80
2022/03/04 11:49:55;;;;;;;;;;;24.60;57.50;;;;;;5059600;28;20359;-80
2022/03/04 11:52:27;;;;;;;;;;;24.80;55.80;;;;;;5077151;28;19989;-80
2022/03/04 11:54:56;;;;;;;;;;;24.70;55.10;;;;;;5077881;28;19916;-80
2022/03/04 11:57:34;;;;;;;;;;;24.60;57.70;;;;;;5077188;28;19908;-80
2022/03/04 12:00:01;;;;;;;;;;;24.70;52.10;;;;;;5081101;28;19954;-80
2022/03/04 12:02:28;;;;;;;;;;;24.70;56.00;;;;;;5062912;28;19919;-80
2022/03/04 12:05:12;;;;;;;;;;;24.90;55.10;;;;;;5076346;28;20015;-80
2022/03/04 12:07:40;;;;;;;;;;;25.00;54.70;;;;;;5069701;28;20421;-80
2022/03/04 12:10:10;;;;;;;;;;;24.70;54.70;;;;;;5062874;28;19915;-80
2022/03/04 12:12:35;;;;;;;;;;;24.30;56.20;;;;;;5062832;28;19913;-80
2022/03/04 12:15:16;;;;;;;;;;;24.20;53.40;;;;;;5080849;28;19946;-80
2022/03/04 12:18:04;;;;;;;;;;;24.30;55.20;;;;;;5062570;28;20279;-80
2022/03/04 12:20:30;;;;;;;;;;;24.50;56.50;;;;;;5068303;28;19909;-80
2022/03/04 12:22:59;;;;;;;;;;;24.30;53.90;;;;;;5080899;28;19916;-80
2022/03/04 12:25:43;;;;;;;;;;;24.00;54.80;;;;;;5063168;28;19908;-81
2022/03/04 12:28:13;;;;;;;;;;;23.50;54.50;;;;;;5062688;28;19908;-80
2022/03/04 12:30:39;;;;;;;;;;;23.40;55.60;;;;;;5062673;28;19908;-80
2022/03/04 12:33:04;;;;;;;;;;;23.30;52.50;;;;;;5062314;28;19916;-80
2022/03/04 12:35:30;;;;;;;;;;;23.40;55.60;;;;;;5080743;28;20264;-80
2022/03/04 12:37:56;;;;;;;;;;;23.50;52.60;;;;;;5062538;28;19908;-80
2022/03/04 12:40:22;;;;;;;;;;;23.30;52.40;;;;;;5080184;28;20352;-80
2022/03/04 12:42:54;;;;;;;;;;;23.10;53.50;;;;;;5079975;28;20454;-80
2022/03/04 12:45:20;;;;;;;;;;;23.20;54.60;;;;;;5050996;28;19983;-80
2022/03/04 12:47:46;;;;;;;;;;;23.40;54.40;;;;;;5059470;28;19913;-80
2022/03/04 12:50:11;;;;;;;;;;;23.50;54.10;;;;;;5062463;28;19908;-80
2022/03/04 12:52:37;;;;;;;;;;;23.60;51.00;;;;;;5079988;28;19909;-80
2022/03/04 12:55:08;;;;;;;;;;;23.80;53.10;;;;;;5062086;28;19909;-80
2022/03/04 12:57:39;;;;;;;;;;;23.80;52.60;;;;;;5079927;28;19916;-80
2022/03/04 13:00:04;;;;;;;;;;;23.60;51.40;;;;;;5061974;28;19908;-80
2022/03/04 13:02:33;;;;;;;;;;;23.30;51.60;;;;;;5079594;28;19958;-80
2022/03/04 13:05:00;;;;;;;;;;;23.10;53.30;;;;;;5057496;28;19934;-80
2022/03/04 13:07:26;;;;;;;;;;;22.90;53.30;;;;;;5066646;28;19913;-80
2022/03/04 13:09:54;;;;;;;;;;;23.00;54.10;;;;;;5078894;28;19908;-80
2022/03/04 13:12:20;;;;;;;;;;;23.00;53.00;;;;;;5079817;28;19938;-81
2022/03/04 13:14:46;;;;;;;;;;;23.10;52.80;;;;;;5061656;28;19909;-80
2022/03/04 13:17:12;;;;;;;;;;;22.90;50.40;;;;;;5061747;28;20313;-80
2022/03/04 13:19:39;;;;;;;;;;;22.60;51.10;;;;;;5061923;28;19909;-80
2022/03/04 13:22:06;;;;;;;;;;;22.40;53.10;;;;;;5062130;28;19916;-80
2022/03/04 13:24:33;;;;;;;;;;;22.20;52.30;;;;;;5043053;28;19974;-80
2022/03/04 13:27:00;;;;;;;;;;;22.10;51.60;;;;;;5061532;28;19912;-80
2022/03/04 13:29:31;;;;;;;;;;;22.10;52.50;;;;;;5079452;28;19915;-80
2022/03/04 13:32:07;;;;;;;;;;;21.90;51.50;;;;;;5079209;28;19991;-80
2022/03/04 13:34:32;;;;;;;;;;;21.70;51.20;;;;;;5079189;28;19916;-80
2022/03/04 13:37:00;;;;;;;;;;;21.40;50.60;;;;;;5079450;28;19909;-80
2022/03/04 13:39:27;;;;;;;;;;;21.10;49.90;;;;;;5044534;28;19908;-79
2022/03/04 13:42:11;;;;;;;;;;;20.90;53.20;;;;;;5079414;28;19908;-80
2022/03/04 13:44:49;;;;;;;;;;;20.70;53.60;;;;;;5061276;28;20372;-80
2022/03/04 13:47:14;;;;;;;;;;;20.50;52.80;;;;;;5072026;28;20336;-80
2022/03/04 13:49:48;;;;;;;;;;;20.20;52.60;;;;;;5048038;28;20007;-80
2022/03/04 13:52:14;;;;;;;;;;;19.90;54.10;;;;;;5079057;28;19909;-80
2022/03/04 13:54:50;;;;;;;;;;;19.60;54.10;;;;;;5079254;28;19909;-80
2022/03/04 13:57:36;;;;;;;;;;;19.30;54.40;;;;;;5078731;28;19915;-80
2022/03/04 14:00:04;;;;;;;;;;;18.90;54.90;;;;;;5079018;28;19908;-80
2022/03/04 14:02:37;;;;;;;;;;;18.60;54.70;;;;;;5078337;28;19915;-80
2022/03/04 14:05:03;;;;;;;;;;;18.50;55.00;;;;;;5074121;28;20367;-80
2022/03/04 14:07:38;;;;;;;;;;;18.40;55.60;;;;;;5078710;28;19935;-80
2022/03/04 14:10:08;;;;;;;;;;;18.10;55.20;;;;;;5060384;28;19913;-80
2022/03/04 14:12:34;;;;;;;;;;;18.00;55.70;;;;;;5078586;28;20489;-80
2022/03/04 14:15:00;;;;;;;;;;;17.70;55.90;;;;;;5060572;28;19908;-80
2022/03/04 14:17:25;;;;;;;;;;;17.50;56.50;;;;;;5078351;28;19915;-80
2022/03/04 14:19:51;;;;;;;;;;;17.30;56.90;;;;;;5060655;28;19916;-80
2022/03/04 14:22:17;;;;;;;;;;;17.10;57.40;;;;;;5060597;28;19916;-80